Terminal Aerodrome Forecast
Issued by NWS Columbia, SC

Current Version | Previous Version | Text Only | Print | Product List | Glossary On
Versions: 1 2 3 4 5 6 7 8 9 10 11 12 13 14 15 16 17 18 19 20 21 22 23 24 25 26 27 28 29 30
000
FTUS42 KCAE 270500
TAFCAE
TAF
KCAE 270531Z 2706/2806 00000KT P6SM SCT250
      TEMPO 2709/2713 5SM BR
     FM271500 VRB03KT P6SM SCT200
     FM272200 00000KT P6SM SCT120 BKN250=

USA.gov is the U.S. government's official web portal to all federal, state and local government web resources and services.